Terminal Aerodrome Forecast
Issued by NWS Missoula, MT

Home | Current Version | Previous Version | Text Only | Print | Product List | Glossary On
Versions: 1 2 3 4 5 6 7 8 9 10 11 12 13
000
FTUS45 KMSO 242322
TAFGPI
TAF
KGPI 242322Z 2500/2524 27011G17KT P6SM SCT070 OVC120
     FM250200 VRB04KT P6SM BKN070
     FM252100 12006KT P6SM VCSH OVC050=

USA.gov is the U.S. government's official web portal to all federal, state and local government web resources and services.